createdAt,value
2016-10-19T00:00:00.657Z,0
2016-10-19T00:01:11.167Z,0
2016-10-19T00:02:21.614Z,0
2016-10-19T00:04:23.157Z,0
2016-10-19T00:05:33.711Z,0
2016-10-19T00:06:44.222Z,0
2016-10-19T00:07:54.739Z,0
2016-10-19T00:09:05.237Z,0
2016-10-19T00:10:15.849Z,0
2016-10-19T00:11:26.378Z,0
2016-10-19T00:12:36.861Z,0
2016-10-19T00:13:47.425Z,0
2016-10-19T00:14:57.888Z,0
2016-10-19T00:16:08.402Z,0
2016-10-19T00:17:18.917Z,0
2016-10-19T00:18:29.416Z,0
2016-10-19T00:19:39.942Z,0
2016-10-19T00:20:50.455Z,0
2016-10-19T00:22:00.929Z,0
2016-10-19T00:23:11.449Z,0
2016-10-19T00:24:21.911Z,0
2016-10-19T00:25:32.393Z,0
2016-10-19T00:26:42.908Z,0
2016-10-19T00:27:53.487Z,0
2016-10-19T00:29:03.950Z,0
2016-10-19T00:30:14.475Z,0
2016-10-19T00:31:24.978Z,0
2016-10-19T00:32:35.510Z,0
2016-10-19T00:33:46.072Z,0
2016-10-19T00:34:56.530Z,0
2016-10-19T00:36:07.060Z,0
2016-10-19T00:37:17.517Z,0
2016-10-19T00:38:28.497Z,0
2016-10-19T00:39:38.939Z,0
2016-10-19T00:40:49.417Z,0
2016-10-19T00:41:59.921Z,0
2016-10-19T00:43:10.450Z,0
2016-10-19T00:44:20.928Z,0
2016-10-19T00:45:31.454Z,0
2016-10-19T00:46:41.950Z,0
2016-10-19T00:47:53.029Z,0
2016-10-19T00:49:03.523Z,0
2016-10-19T00:50:14.021Z,0
2016-10-19T00:51:24.735Z,0
2016-10-19T00:52:35.276Z,0
2016-10-19T00:53:45.767Z,0
2016-10-19T00:54:56.228Z,0
2016-10-19T00:56:06.779Z,0
2016-10-19T00:57:18.732Z,0
2016-10-19T00:58:29.224Z,0
2016-10-19T00:59:39.748Z,0
2016-10-19T01:00:50.240Z,0
2016-10-19T01:02:00.734Z,0
2016-10-19T01:03:11.222Z,0
2016-10-19T01:04:21.729Z,0
2016-10-19T01:05:32.222Z,0
2016-10-19T01:06:42.715Z,0
2016-10-19T01:07:53.272Z,0
2016-10-19T01:09:03.958Z,0
2016-10-19T01:11:30.631Z,0
2016-10-19T01:12:41.108Z,0
2016-10-19T01:13:51.611Z,0
2016-10-19T01:15:02.109Z,0
2016-10-19T01:16:12.600Z,0
2016-10-19T01:17:23.097Z,0
2016-10-19T01:18:33.636Z,0
2016-10-19T01:19:44.129Z,0
2016-10-19T01:20:54.644Z,0
2016-10-19T01:22:05.138Z,0
2016-10-19T01:23:16.076Z,0
2016-10-19T01:24:26.529Z,0
2016-10-19T01:25:37.024Z,0
2016-10-19T01:26:47.640Z,0
2016-10-19T01:27:58.117Z,0
2016-10-19T01:29:08.625Z,0
2016-10-19T01:30:19.126Z,0
2016-10-19T01:31:29.643Z,0
2016-10-19T01:32:40.326Z,0
2016-10-19T01:33:50.806Z,0
2016-10-19T01:35:01.309Z,0
2016-10-19T01:36:11.784Z,0
2016-10-19T01:37:22.318Z,0
2016-10-19T01:38:32.911Z,0
2016-10-19T01:39:43.451Z,0
2016-10-19T01:40:54.005Z,0
2016-10-19T01:42:04.542Z,0
2016-10-19T01:43:15.031Z,0
2016-10-19T01:44:25.654Z,0
2016-10-19T01:45:36.148Z,0
2016-10-19T01:46:46.646Z,0
2016-10-19T01:47:57.148Z,0
2016-10-19T01:49:07.612Z,0
2016-10-19T01:50:18.198Z,0
2016-10-19T01:51:28.678Z,0
2016-10-19T01:52:39.126Z,0
2016-10-19T01:53:49.639Z,0
2016-10-19T01:55:00.149Z,0
2016-10-19T01:56:11.180Z,0
2016-10-19T01:57:21.644Z,0
2016-10-19T01:58:32.125Z,0
2016-10-19T01:59:42.639Z,0
2016-10-19T02:00:53.140Z,0
2016-10-19T02:02:03.632Z,0
2016-10-19T02:03:14.144Z,0
2016-10-19T02:04:24.623Z,0
2016-10-19T02:05:35.120Z,0
2016-10-19T02:06:45.590Z,0
2016-10-19T02:07:56.249Z,0
2016-10-19T02:09:06.727Z,0
2016-10-19T02:10:17.220Z,0
2016-10-19T02:11:27.703Z,0
2016-10-19T02:12:38.179Z,0
2016-10-19T02:13:48.704Z,0
2016-10-19T02:14:59.215Z,0
2016-10-19T02:16:09.718Z,0
2016-10-19T02:17:20.246Z,0
2016-10-19T02:18:30.826Z,0
2016-10-19T02:19:41.396Z,0
2016-10-19T02:20:51.876Z,0
2016-10-19T02:22:02.388Z,0
2016-10-19T02:23:12.894Z,0
2016-10-19T02:24:23.375Z,0
2016-10-19T02:25:33.965Z,0
2016-10-19T02:26:44.442Z,0
2016-10-19T02:27:54.907Z,0
2016-10-19T02:29:05.496Z,0
2016-10-19T02:30:16.026Z,0
2016-10-19T02:31:26.558Z,0
2016-10-19T02:32:37.132Z,0
2016-10-19T02:33:47.633Z,0
2016-10-19T02:34:58.106Z,0
2016-10-19T02:36:08.610Z,0
2016-10-19T02:37:19.110Z,0
2016-10-19T02:38:29.585Z,0
2016-10-19T02:39:40.065Z,0
2016-10-19T02:40:50.559Z,0
2016-10-19T02:42:01.076Z,0
2016-10-19T02:43:11.678Z,0
2016-10-19T02:44:22.200Z,0
2016-10-19T02:45:32.694Z,0
2016-10-19T02:46:43.235Z,0
2016-10-19T02:47:53.769Z,0
2016-10-19T02:49:04.354Z,0
2016-10-19T02:50:14.851Z,0
2016-10-19T02:51:25.324Z,0
2016-10-19T02:52:35.790Z,0
2016-10-19T02:53:46.316Z,0
2016-10-19T02:54:56.786Z,0
2016-10-19T02:56:07.257Z,0
2016-10-19T02:57:17.722Z,0
2016-10-19T02:58:28.230Z,0
2016-10-19T02:59:38.733Z,0
2016-10-19T03:00:49.339Z,0
2016-10-19T03:01:59.809Z,0
2016-10-19T03:03:10.340Z,0
2016-10-19T03:04:20.855Z,0
2016-10-19T03:05:31.345Z,0
2016-10-19T03:06:41.953Z,0
2016-10-19T03:07:52.437Z,0
2016-10-19T03:09:02.967Z,0
2016-10-19T03:10:13.475Z,0
2016-10-19T03:11:23.966Z,0
2016-10-19T03:12:34.523Z,0
2016-10-19T03:13:45.029Z,0
2016-10-19T03:14:55.539Z,0
2016-10-19T03:16:06.040Z,0
2016-10-19T03:17:16.553Z,0
2016-10-19T03:18:27.162Z,0
2016-10-19T03:19:37.611Z,0
2016-10-19T03:20:48.085Z,0
2016-10-19T03:21:58.561Z,0
2016-10-19T03:23:09.130Z,0
2016-10-19T03:24:19.714Z,0
2016-10-19T03:25:30.276Z,0
2016-10-19T03:26:40.764Z,0
2016-10-19T03:27:51.279Z,0
2016-10-19T03:29:01.741Z,0
2016-10-19T03:30:12.198Z,0
2016-10-19T03:31:22.653Z,0
2016-10-19T03:32:33.096Z,0
2016-10-19T03:33:43.591Z,0
2016-10-19T03:34:54.052Z,0
2016-10-19T03:36:04.504Z,0
2016-10-19T03:37:14.957Z,0
2016-10-19T03:38:25.408Z,0
2016-10-19T03:39:35.903Z,0
2016-10-19T03:40:46.365Z,0
2016-10-19T03:41:56.928Z,0
2016-10-19T03:43:07.424Z,0
2016-10-19T03:44:17.874Z,0
2016-10-19T03:45:28.338Z,0
2016-10-19T03:46:38.792Z,0
2016-10-19T03:47:49.348Z,0
2016-10-19T03:48:59.841Z,0
2016-10-19T03:50:10.302Z,0
2016-10-19T03:51:20.774Z,0
2016-10-19T03:52:31.268Z,0
2016-10-19T03:53:41.720Z,0
2016-10-19T03:54:52.176Z,0
2016-10-19T03:56:02.644Z,0
2016-10-19T03:57:13.597Z,0
2016-10-19T03:58:24.037Z,0
2016-10-19T03:59:34.488Z,0
2016-10-19T04:00:44.946Z,0
2016-10-19T04:01:55.409Z,0
2016-10-19T04:03:05.871Z,0
2016-10-19T04:04:16.322Z,0
2016-10-19T04:05:26.777Z,0
2016-10-19T04:06:37.243Z,0
2016-10-19T04:07:48.168Z,0
2016-10-19T04:08:58.651Z,0
2016-10-19T04:10:09.119Z,0
2016-10-19T04:11:19.675Z,0
2016-10-19T04:12:30.124Z,0
2016-10-19T04:13:40.576Z,0
2016-10-19T04:14:51.041Z,0
2016-10-19T04:16:01.539Z,0
2016-10-19T04:17:12.088Z,0
2016-10-19T04:18:22.538Z,0
2016-10-19T04:19:32.990Z,0
2016-10-19T04:20:43.447Z,0
2016-10-19T04:21:53.928Z,0
2016-10-19T04:23:04.390Z,0
2016-10-19T04:24:14.855Z,0
2016-10-19T04:25:25.307Z,0
2016-10-19T04:26:35.757Z,0
2016-10-19T04:27:46.210Z,0
2016-10-19T04:28:56.678Z,0
2016-10-19T04:30:07.119Z,0
2016-10-19T04:31:17.577Z,0
2016-10-19T04:32:28.032Z,0
2016-10-19T04:33:38.976Z,0
2016-10-19T04:34:49.524Z,0
2016-10-19T04:36:00.517Z,0
2016-10-19T04:37:11.087Z,0
2016-10-19T04:38:21.640Z,0
2016-10-19T04:39:32.248Z,0
2016-10-19T04:40:42.866Z,0
2016-10-19T04:41:53.421Z,0
2016-10-19T04:43:03.975Z,0
2016-10-19T04:44:14.473Z,0
2016-10-19T04:45:24.987Z,0
2016-10-19T04:46:35.499Z,0
2016-10-19T04:47:46.026Z,0
2016-10-19T04:48:56.596Z,0
2016-10-19T04:50:07.114Z,0
2016-10-19T04:51:17.628Z,0
2016-10-19T04:52:28.121Z,0
2016-10-19T04:53:38.658Z,0
2016-10-19T04:54:49.172Z,0
2016-10-19T04:55:59.705Z,0
2016-10-19T04:57:10.212Z,0
2016-10-19T04:58:20.837Z,0
2016-10-19T04:59:31.370Z,0
2016-10-19T05:00:41.929Z,0
2016-10-19T05:01:53.043Z,0
2016-10-19T05:03:03.613Z,0
2016-10-19T05:04:14.217Z,0
2016-10-19T05:05:24.706Z,0
2016-10-19T05:06:35.260Z,0
2016-10-19T05:07:45.843Z,0
2016-10-19T05:08:56.390Z,0
2016-10-19T05:10:06.928Z,0
2016-10-19T05:11:17.518Z,0
2016-10-19T05:12:28.108Z,0
2016-10-19T05:13:38.662Z,0
2016-10-19T05:14:49.201Z,0
2016-10-19T05:15:59.769Z,0
2016-10-19T05:17:10.275Z,0
2016-10-19T05:18:20.804Z,0
2016-10-19T05:19:31.307Z,0
2016-10-19T05:20:41.805Z,0
2016-10-19T05:21:52.433Z,0
2016-10-19T05:23:02.955Z,0
2016-10-19T05:24:13.466Z,0
2016-10-19T05:25:23.975Z,0
2016-10-19T05:26:34.512Z,0
2016-10-19T05:27:45.174Z,0
2016-10-19T05:28:55.694Z,0
2016-10-19T05:30:06.289Z,0
2016-10-19T05:31:16.863Z,0
2016-10-19T05:32:27.405Z,0
2016-10-19T05:33:37.913Z,0
2016-10-19T05:34:48.460Z,0
2016-10-19T05:35:58.977Z,0
2016-10-19T05:37:09.540Z,0
2016-10-19T05:38:20.060Z,0
2016-10-19T05:39:30.672Z,0
2016-10-19T05:40:41.259Z,0
2016-10-19T05:41:51.820Z,0
2016-10-19T05:43:02.357Z,0
2016-10-19T05:44:12.846Z,0
2016-10-19T05:45:23.933Z,0
2016-10-19T05:46:34.463Z,0
2016-10-19T05:47:45.035Z,0
2016-10-19T05:48:55.586Z,0
2016-10-19T05:50:06.121Z,0
2016-10-19T05:51:16.664Z,0
2016-10-19T05:52:27.230Z,0
2016-10-19T05:53:37.793Z,0
2016-10-19T05:54:48.835Z,0
2016-10-19T05:55:59.356Z,0
2016-10-19T05:57:10.034Z,0
2016-10-19T05:58:20.515Z,0
2016-10-19T05:59:31.071Z,0
2016-10-19T06:00:41.620Z,0
2016-10-19T06:01:52.203Z,0
2016-10-19T06:03:02.799Z,0
2016-10-19T06:04:13.414Z,0
2016-10-19T06:05:23.965Z,0
2016-10-19T06:06:34.478Z,0
2016-10-19T06:07:44.986Z,0
2016-10-19T06:08:55.638Z,0
2016-10-19T06:10:06.209Z,0
2016-10-19T06:11:16.740Z,0
2016-10-19T06:12:27.291Z,0
2016-10-19T06:13:37.860Z,0
2016-10-19T06:14:48.392Z,0
2016-10-19T06:15:58.885Z,0
2016-10-19T06:17:09.363Z,0
2016-10-19T06:18:19.906Z,0
2016-10-19T06:19:30.420Z,0
2016-10-19T06:20:41.055Z,0
2016-10-19T06:21:51.650Z,0
2016-10-19T06:23:02.173Z,0
2016-10-19T06:24:13.634Z,0
2016-10-19T06:25:24.172Z,0
2016-10-19T06:26:34.700Z,0
2016-10-19T06:27:45.282Z,0
2016-10-19T06:28:55.789Z,0
2016-10-19T06:30:06.796Z,0
2016-10-19T06:31:17.416Z,0
2016-10-19T06:32:27.916Z,0
2016-10-19T06:33:38.443Z,0
2016-10-19T06:34:48.987Z,0
2016-10-19T06:35:59.532Z,0
2016-10-19T06:37:10.052Z,0
2016-10-19T06:38:20.721Z,0
2016-10-19T06:39:31.265Z,0
2016-10-19T06:40:41.835Z,0
2016-10-19T06:41:52.347Z,0
2016-10-19T06:43:02.872Z,0
2016-10-19T06:44:13.428Z,0
2016-10-19T06:45:24.464Z,0
2016-10-19T06:46:34.991Z,0
2016-10-19T06:47:45.504Z,0
2016-10-19T06:48:56.022Z,0
2016-10-19T06:50:06.667Z,0
2016-10-19T06:51:17.171Z,0
2016-10-19T06:52:27.645Z,0
2016-10-19T06:53:38.128Z,0
2016-10-19T06:54:48.594Z,0
2016-10-19T06:55:59.113Z,0
2016-10-19T06:57:09.630Z,0
2016-10-19T06:58:20.675Z,0
2016-10-19T06:59:50.432Z,0
2016-10-19T07:01:01.026Z,0
2016-10-19T07:02:11.528Z,0
2016-10-19T07:03:22.030Z,0
2016-10-19T07:04:33.085Z,0
2016-10-19T07:05:43.599Z,0
2016-10-19T07:06:54.081Z,0
2016-10-19T07:08:04.548Z,0
2016-10-19T07:09:15.106Z,0
2016-10-19T07:10:25.652Z,0
2016-10-19T07:11:36.154Z,0
2016-10-19T07:12:47.253Z,0
2016-10-19T07:13:57.746Z,0
2016-10-19T07:15:08.289Z,0
2016-10-19T07:16:18.796Z,0
2016-10-19T07:17:29.307Z,0
2016-10-19T07:18:39.810Z,0
2016-10-19T07:19:50.315Z,0
2016-10-19T07:21:00.817Z,0
2016-10-19T07:22:11.317Z,0
2016-10-19T07:23:21.850Z,0
2016-10-19T07:24:32.493Z,0
2016-10-19T07:25:43.068Z,0
2016-10-19T07:26:54.113Z,0
2016-10-19T07:28:04.671Z,0
2016-10-19T07:29:15.281Z,0
2016-10-19T07:30:25.840Z,0
2016-10-19T07:31:36.394Z,0
2016-10-19T07:32:46.919Z,0
2016-10-19T07:33:57.501Z,0
2016-10-19T07:35:08.025Z,0
2016-10-19T07:36:18.643Z,0
2016-10-19T07:37:29.222Z,0
2016-10-19T07:38:39.721Z,0
2016-10-19T07:39:50.278Z,0
2016-10-19T07:41:00.908Z,0
2016-10-19T07:42:11.587Z,0
2016-10-19T07:43:22.122Z,0
2016-10-19T07:44:32.656Z,0
2016-10-19T07:45:43.205Z,0
2016-10-19T07:46:53.744Z,0
2016-10-19T07:48:04.445Z,0
2016-10-19T07:49:15.525Z,0
2016-10-19T07:50:26.086Z,0
2016-10-19T07:51:36.631Z,0
2016-10-19T07:52:47.179Z,0
2016-10-19T07:53:57.731Z,0
2016-10-19T07:55:08.307Z,0
2016-10-19T07:56:18.818Z,0
2016-10-19T07:57:29.370Z,0
2016-10-19T07:58:39.945Z,0
2016-10-19T07:59:50.490Z,0
2016-10-19T08:01:01.009Z,0
2016-10-19T08:02:11.568Z,0
2016-10-19T08:03:22.103Z,0
2016-10-19T08:04:32.661Z,0
2016-10-19T08:05:43.326Z,0
2016-10-19T08:06:53.849Z,0
2016-10-19T08:08:04.341Z,0
2016-10-19T08:09:14.860Z,0
2016-10-19T08:10:25.369Z,0
2016-10-19T08:11:35.996Z,0
2016-10-19T08:12:46.521Z,0
2016-10-19T08:13:57.066Z,0
2016-10-19T08:15:07.551Z,0
2016-10-19T08:16:18.089Z,0
2016-10-19T08:17:28.634Z,0
2016-10-19T08:18:39.159Z,0
2016-10-19T08:19:49.812Z,0
2016-10-19T08:21:00.350Z,0
2016-10-19T08:22:10.862Z,0
2016-10-19T08:23:21.380Z,5
2016-10-19T08:24:31.900Z,5
2016-10-19T08:25:42.483Z,5
2016-10-19T08:26:53.859Z,5
2016-10-19T08:28:04.336Z,5
2016-10-19T08:29:14.994Z,5
2016-10-19T08:30:25.503Z,5
2016-10-19T08:31:36.027Z,10
2016-10-19T08:32:46.517Z,10
2016-10-19T08:33:57.059Z,10
2016-10-19T08:35:07.792Z,15
2016-10-19T08:36:18.294Z,15
2016-10-19T08:37:28.849Z,20
2016-10-19T08:38:39.412Z,20
2016-10-19T08:39:49.976Z,25
2016-10-19T08:41:00.550Z,30
2016-10-19T08:42:11.082Z,30
2016-10-19T08:43:21.654Z,35
2016-10-19T08:44:32.261Z,40
2016-10-19T08:45:42.837Z,45
2016-10-19T08:46:53.376Z,50
2016-10-19T08:48:04.395Z,55
2016-10-19T08:49:14.917Z,60
2016-10-19T08:50:25.519Z,60
2016-10-19T08:51:36.085Z,65
2016-10-19T08:52:46.719Z,70
2016-10-19T08:53:57.249Z,75
2016-10-19T08:55:07.796Z,80
2016-10-19T08:56:18.359Z,85
2016-10-19T08:57:28.911Z,90
2016-10-19T08:58:39.437Z,95
2016-10-19T08:59:50.041Z,105
2016-10-19T09:01:00.600Z,110
2016-10-19T09:02:11.161Z,120
2016-10-19T09:03:21.643Z,120
2016-10-19T09:04:32.732Z,125
2016-10-19T09:05:43.227Z,130
2016-10-19T09:06:53.763Z,135
2016-10-19T09:08:04.380Z,135
2016-10-19T09:09:14.891Z,140
2016-10-19T09:10:25.529Z,145
2016-10-19T09:11:36.082Z,150
2016-10-19T09:12:46.628Z,160
2016-10-19T09:13:57.153Z,165
2016-10-19T09:15:07.728Z,170
2016-10-19T09:16:18.373Z,180
2016-10-19T09:17:28.884Z,180
2016-10-19T09:18:39.431Z,190
2016-10-19T09:19:50.390Z,200
2016-10-19T09:21:00.945Z,205
2016-10-19T09:22:11.486Z,205
2016-10-19T09:23:22.048Z,205
2016-10-19T09:24:32.611Z,210
2016-10-19T09:25:43.179Z,215
2016-10-19T09:26:53.742Z,220
2016-10-19T09:28:04.386Z,225
2016-10-19T09:29:14.911Z,230
2016-10-19T09:30:25.450Z,240
2016-10-19T09:31:36.028Z,250
2016-10-19T09:32:46.536Z,255
2016-10-19T09:33:57.052Z,280
2016-10-19T09:35:07.622Z,305
2016-10-19T09:36:18.194Z,320
2016-10-19T09:37:28.725Z,355
2016-10-19T09:38:39.307Z,390
2016-10-19T09:39:50.028Z,490
2016-10-19T09:41:00.613Z,475
2016-10-19T09:42:11.191Z,420
2016-10-19T09:43:21.776Z,450
2016-10-19T09:44:32.378Z,430
2016-10-19T09:45:42.946Z,425
2016-10-19T09:46:53.525Z,440
2016-10-19T09:48:04.107Z,420
2016-10-19T09:49:14.688Z,385
2016-10-19T09:50:25.274Z,315
2016-10-19T09:51:35.951Z,305
2016-10-19T09:52:46.534Z,300
2016-10-19T09:53:57.105Z,300
2016-10-19T09:55:07.698Z,305
2016-10-19T09:56:18.272Z,310
2016-10-19T09:57:28.954Z,315
2016-10-19T09:58:39.535Z,330
2016-10-19T09:59:50.113Z,330
2016-10-19T10:01:00.693Z,340
2016-10-19T10:02:11.273Z,350
2016-10-19T10:03:21.855Z,355
2016-10-19T10:04:32.434Z,355
2016-10-19T10:05:43.013Z,370
2016-10-19T10:06:53.624Z,400
2016-10-19T10:08:04.209Z,445
2016-10-19T10:09:14.902Z,505
2016-10-19T10:10:25.479Z,550
2016-10-19T10:11:36.053Z,550
2016-10-19T10:12:46.543Z,575
2016-10-19T10:13:57.008Z,580
2016-10-19T10:15:07.513Z,560
2016-10-19T10:16:17.981Z,475
2016-10-19T10:17:28.472Z,460
2016-10-19T10:18:38.949Z,510
2016-10-19T10:19:49.477Z,620
2016-10-19T10:21:00.118Z,630
2016-10-19T10:22:10.667Z,670
2016-10-19T10:23:21.136Z,660
2016-10-19T10:24:32.106Z,680
2016-10-19T10:25:42.632Z,650
2016-10-19T10:26:53.236Z,670
2016-10-19T10:28:03.725Z,700
2016-10-19T10:29:14.206Z,690
2016-10-19T10:30:24.692Z,680
2016-10-19T10:31:35.222Z,680
2016-10-19T10:32:45.716Z,745
2016-10-19T10:33:56.266Z,785
2016-10-19T10:35:06.776Z,815
2016-10-19T10:36:17.738Z,845
2016-10-19T10:37:28.243Z,940
2016-10-19T10:38:38.855Z,1025
2016-10-19T10:39:49.821Z,1205
2016-10-19T10:41:00.330Z,1305
2016-10-19T10:42:10.837Z,1295
2016-10-19T10:43:21.315Z,1320
2016-10-19T10:44:31.804Z,1365
2016-10-19T10:45:42.302Z,1360
2016-10-19T10:46:52.865Z,1320
2016-10-19T10:48:03.400Z,1345
2016-10-19T10:49:13.896Z,1360
2016-10-19T10:50:24.869Z,1360
2016-10-19T10:51:35.401Z,1355
2016-10-19T10:52:45.884Z,1360
2016-10-19T10:53:56.365Z,1450
2016-10-19T10:55:06.891Z,1470
2016-10-19T10:56:17.450Z,1545
2016-10-19T10:57:27.994Z,1570
2016-10-19T10:58:38.518Z,1585
2016-10-19T10:59:49.086Z,1650
2016-10-19T11:00:59.604Z,1630
2016-10-19T11:02:10.230Z,1600
2016-10-19T11:03:20.742Z,1575
2016-10-19T11:04:31.263Z,1560
2016-10-19T11:05:41.789Z,1375
2016-10-19T11:06:52.298Z,1295
2016-10-19T11:08:02.921Z,1305
2016-10-19T11:09:13.450Z,1195
2016-10-19T11:10:24.446Z,1210
2016-10-19T11:11:34.999Z,1265
2016-10-19T11:12:45.533Z,1350
2016-10-19T11:13:56.200Z,1450
2016-10-19T11:15:06.705Z,1510
2016-10-19T11:16:17.214Z,1455
2016-10-19T11:17:27.721Z,1555
2016-10-19T11:18:38.255Z,1430
2016-10-19T11:19:48.832Z,1405
2016-10-19T11:20:59.316Z,1445
2016-10-19T11:22:09.847Z,1455
2016-10-19T11:23:20.340Z,1530
2016-10-19T11:24:30.845Z,1590
2016-10-19T11:25:41.508Z,1625
2016-10-19T11:26:52.034Z,1745
2016-10-19T11:28:02.511Z,1800
2016-10-19T11:29:12.985Z,1725
2016-10-19T11:30:23.500Z,1840
2016-10-19T11:31:34.004Z,1735
2016-10-19T11:32:44.489Z,1780
2016-10-19T11:33:55.001Z,1675
2016-10-19T11:35:05.481Z,1645
2016-10-19T11:36:16.052Z,1665
2016-10-19T11:37:26.674Z,1795
2016-10-19T11:38:37.204Z,1790
2016-10-19T11:39:47.727Z,1850
2016-10-19T11:40:58.205Z,1880
2016-10-19T11:42:08.700Z,1870
2016-10-19T11:43:19.200Z,2015
2016-10-19T11:44:29.708Z,1995
2016-10-19T11:45:40.211Z,1895
2016-10-19T11:46:50.706Z,1900
2016-10-19T11:48:01.191Z,1955
2016-10-19T11:49:11.820Z,1960
2016-10-19T11:50:22.371Z,1940
2016-10-19T11:51:32.900Z,1930
2016-10-19T11:52:43.390Z,1920
2016-10-19T11:53:53.890Z,1715
2016-10-19T11:55:04.496Z,1715
2016-10-19T11:56:15.053Z,1710
2016-10-19T11:57:25.612Z,1730
2016-10-19T11:58:36.185Z,1715
2016-10-19T11:59:46.699Z,1635
2016-10-19T12:00:57.225Z,1600
2016-10-19T12:02:07.734Z,1800
2016-10-19T12:03:18.235Z,1730
2016-10-19T12:04:28.733Z,1630
2016-10-19T12:05:39.250Z,1590
2016-10-19T12:06:49.869Z,1655
2016-10-19T12:08:00.390Z,1680
2016-10-19T12:09:10.967Z,1755
2016-10-19T12:10:21.513Z,1780
2016-10-19T12:11:32.042Z,1785
2016-10-19T12:12:42.563Z,1850
2016-10-19T12:13:53.096Z,1855
2016-10-19T12:15:03.655Z,1930
2016-10-19T12:16:14.662Z,1915
2016-10-19T12:17:25.177Z,1960
2016-10-19T12:18:36.294Z,1945
2016-10-19T12:19:46.854Z,2075
2016-10-19T12:20:57.332Z,2015
2016-10-19T12:22:07.841Z,1935
2016-10-19T12:23:18.368Z,1945
2016-10-19T12:24:29.867Z,1925
2016-10-19T12:25:40.455Z,1955
2016-10-19T12:26:50.948Z,1940
2016-10-19T12:28:01.438Z,2020
2016-10-19T12:29:11.901Z,2045
2016-10-19T12:30:22.381Z,1995
2016-10-19T12:31:32.861Z,1985
2016-10-19T12:32:43.332Z,2025
2016-10-19T12:33:53.821Z,2055
2016-10-19T12:35:04.292Z,2100
2016-10-19T12:36:14.768Z,2050
2016-10-19T12:37:25.244Z,2115
2016-10-19T12:38:35.726Z,2050
2016-10-19T12:39:46.193Z,2155
2016-10-19T12:40:56.680Z,2185
2016-10-19T12:42:07.253Z,2110
2016-10-19T12:43:17.729Z,2010
2016-10-19T12:44:28.203Z,2095
2016-10-19T12:45:39.175Z,2165
2016-10-19T12:46:49.647Z,2195
2016-10-19T12:48:00.216Z,2235
2016-10-19T12:49:10.698Z,2315
2016-10-19T12:50:21.163Z,2300
2016-10-19T12:51:31.634Z,2285
2016-10-19T12:52:42.117Z,2280
2016-10-19T12:53:52.597Z,2410
2016-10-19T12:55:03.326Z,2305
2016-10-19T12:56:13.800Z,2335
2016-10-19T12:57:24.315Z,2285
2016-10-19T12:58:34.786Z,2270
2016-10-19T12:59:45.371Z,2355
2016-10-19T13:00:55.859Z,2375
2016-10-19T13:02:06.337Z,2315
2016-10-19T13:03:16.844Z,2285
2016-10-19T13:04:27.357Z,2210
2016-10-19T13:05:37.940Z,2280
2016-10-19T13:06:48.414Z,2415
2016-10-19T13:07:58.902Z,2315
2016-10-19T13:09:09.413Z,2415
2016-10-19T13:10:19.902Z,2380
2016-10-19T13:11:30.562Z,2395
2016-10-19T13:12:41.047Z,2410
2016-10-19T13:13:52.015Z,2445
2016-10-19T13:15:02.488Z,2405
2016-10-19T13:16:12.972Z,2410
2016-10-19T13:17:23.458Z,2275
2016-10-19T13:18:33.961Z,2350
2016-10-19T13:19:44.440Z,2325
2016-10-19T13:20:54.925Z,2375
2016-10-19T13:22:05.435Z,2465
2016-10-19T13:23:15.932Z,2370
2016-10-19T13:24:26.415Z,2440
2016-10-19T13:25:36.925Z,2440
2016-10-19T13:26:47.868Z,2320
2016-10-19T13:27:58.367Z,2230
2016-10-19T13:29:08.960Z,2355
2016-10-19T13:30:19.656Z,2365
2016-10-19T13:31:30.143Z,2375
2016-10-19T13:32:40.615Z,2400
2016-10-19T13:33:51.145Z,2415
2016-10-19T13:35:01.706Z,2525
2016-10-19T13:36:12.251Z,2460
2016-10-19T13:37:23.221Z,2145
2016-10-19T13:38:33.780Z,2250
2016-10-19T13:39:44.306Z,2430
2016-10-19T13:40:55.468Z,2220
2016-10-19T13:42:06.004Z,2370
2016-10-19T13:43:16.550Z,2310
2016-10-19T13:44:27.127Z,2430
2016-10-19T13:45:37.663Z,2370
2016-10-19T13:47:02.831Z,2365
2016-10-19T13:48:13.354Z,2385
2016-10-19T13:49:24.382Z,2410
2016-10-19T13:50:34.907Z,2265
2016-10-19T13:51:45.880Z,2140
2016-10-19T13:52:56.860Z,2250
2016-10-19T13:54:07.355Z,2440
2016-10-19T13:55:18.840Z,2330
2016-10-19T13:56:29.847Z,2320
2016-10-19T13:57:40.407Z,2410
2016-10-19T13:58:50.923Z,2425
2016-10-19T14:00:01.426Z,2400
2016-10-19T14:01:11.951Z,2500
2016-10-19T14:02:22.496Z,2450
2016-10-19T14:03:33.175Z,2410
2016-10-19T14:04:43.733Z,2470
2016-10-19T14:05:54.348Z,2420
2016-10-19T14:07:04.855Z,2350
2016-10-19T14:08:15.342Z,2405
2016-10-19T14:09:25.973Z,2380
2016-10-19T14:10:36.498Z,2380
2016-10-19T14:11:47.000Z,2360
2016-10-19T14:12:57.511Z,2255
2016-10-19T14:14:08.067Z,2290
2016-10-19T14:15:18.695Z,2250
2016-10-19T14:16:29.226Z,2200
2016-10-19T14:17:39.711Z,2185
2016-10-19T14:18:50.243Z,2275
2016-10-19T14:20:00.723Z,2175
2016-10-19T14:21:11.857Z,2200
2016-10-19T14:22:22.382Z,2035
2016-10-19T14:23:32.941Z,2150
2016-10-19T14:24:43.471Z,2120
2016-10-19T14:25:53.998Z,1925
2016-10-19T14:27:04.619Z,2170
2016-10-19T14:28:15.146Z,2235
2016-10-19T14:29:25.676Z,2075
2016-10-19T14:30:36.181Z,2145
2016-10-19T14:31:46.727Z,2495
2016-10-19T14:32:57.225Z,2495
2016-10-19T14:34:07.784Z,2410
2016-10-19T14:35:18.322Z,2395
2016-10-19T14:36:28.883Z,2370
2016-10-19T14:37:39.393Z,2405
2016-10-19T14:38:50.039Z,2225
2016-10-19T14:40:00.612Z,2190
2016-10-19T14:41:11.577Z,2460
2016-10-19T14:42:22.093Z,2495
2016-10-19T14:43:32.628Z,2330
2016-10-19T14:44:43.093Z,2475
2016-10-19T14:45:53.637Z,2415
2016-10-19T14:47:04.703Z,2395
2016-10-19T14:48:15.190Z,2440
2016-10-19T14:49:25.712Z,2215
2016-10-19T14:50:36.743Z,2245
2016-10-19T14:51:47.286Z,2320
2016-10-19T14:52:58.319Z,2300
2016-10-19T14:54:09.799Z,2355
2016-10-19T14:55:20.309Z,2360
2016-10-19T14:56:31.005Z,2390
2016-10-19T14:57:41.522Z,2175
2016-10-19T14:58:52.051Z,2295
2016-10-19T15:00:02.541Z,2395
2016-10-19T15:01:13.097Z,2360
2016-10-19T15:02:23.640Z,2430
2016-10-19T15:03:34.146Z,2345
2016-10-19T15:04:44.660Z,2315
2016-10-19T15:05:55.193Z,2365
2016-10-19T15:07:05.776Z,2305
2016-10-19T15:08:16.378Z,2355
2016-10-19T15:09:26.887Z,2330
2016-10-19T15:10:37.382Z,2300
2016-10-19T15:11:47.872Z,2335
2016-10-19T15:12:58.385Z,2235
2016-10-19T15:14:08.877Z,2170
2016-10-19T15:15:19.437Z,2220
2016-10-19T15:16:30.459Z,2155
2016-10-19T15:17:41.942Z,2260
2016-10-19T15:18:52.468Z,2285
2016-10-19T15:20:03.091Z,2340
2016-10-19T15:21:13.620Z,2290
2016-10-19T15:22:24.139Z,2225
2016-10-19T15:23:35.130Z,2245
2016-10-19T15:24:45.639Z,2225
2016-10-19T15:25:56.283Z,2210
2016-10-19T15:27:06.807Z,2245
2016-10-19T15:28:17.286Z,2095
2016-10-19T15:29:27.807Z,2200
2016-10-19T15:30:38.319Z,2170
2016-10-19T15:31:48.840Z,2090
2016-10-19T15:32:59.312Z,2070
2016-10-19T15:34:09.827Z,2140
2016-10-19T15:35:20.339Z,2005
2016-10-19T15:36:30.868Z,2085
2016-10-19T15:37:41.510Z,2110
2016-10-19T15:38:52.056Z,2095
2016-10-19T15:40:02.604Z,2055
2016-10-19T15:41:13.109Z,1985
2016-10-19T15:42:23.646Z,1995
2016-10-19T15:43:34.287Z,2070
2016-10-19T15:44:44.832Z,2145
2016-10-19T15:45:55.333Z,2015
2016-10-19T15:47:05.883Z,1765
2016-10-19T15:48:16.406Z,1820
2016-10-19T15:49:27.448Z,2080
2016-10-19T15:50:38.009Z,2180
2016-10-19T15:51:48.568Z,1915
2016-10-19T15:52:59.116Z,1595
2016-10-19T15:54:09.650Z,655
2016-10-19T15:55:20.262Z,680
2016-10-19T15:56:30.776Z,2105
2016-10-19T15:57:41.798Z,2085
2016-10-19T15:58:52.339Z,2060
2016-10-19T16:00:02.868Z,2190
2016-10-19T16:01:13.993Z,2110
2016-10-19T16:02:24.499Z,2080
2016-10-19T16:03:35.014Z,1935
2016-10-19T16:04:45.500Z,2010
2016-10-19T16:05:56.062Z,2065
2016-10-19T16:07:06.590Z,2105
2016-10-19T16:08:17.083Z,2095
2016-10-19T16:09:27.639Z,2145
2016-10-19T16:10:38.128Z,2155
2016-10-19T16:11:48.685Z,1960
2016-10-19T16:12:59.327Z,1785
2016-10-19T16:14:09.860Z,1665
2016-10-19T16:15:20.881Z,1740
2016-10-19T16:16:31.384Z,1715
2016-10-19T16:17:41.910Z,1645
2016-10-19T16:18:52.516Z,1680
2016-10-19T16:20:03.072Z,1660
2016-10-19T16:21:13.633Z,1775
2016-10-19T16:22:24.187Z,1715
2016-10-19T16:23:34.759Z,1265
2016-10-19T16:24:45.342Z,965
2016-10-19T16:25:55.919Z,1605
2016-10-19T16:27:06.523Z,940
2016-10-19T16:28:17.135Z,1630
2016-10-19T16:29:28.191Z,1725
2016-10-19T16:30:38.856Z,1880
2016-10-19T16:31:49.387Z,1950
2016-10-19T16:32:59.971Z,1905
2016-10-19T16:34:10.513Z,1970
2016-10-19T16:35:21.090Z,1920
2016-10-19T16:36:32.267Z,1890
2016-10-19T16:37:42.825Z,1885